createdAt,value
2022-11-15T00:01:02.996Z,43.10
2022-11-15T00:03:34.208Z,44.20
2022-11-15T00:06:07.025Z,50.60
2022-11-15T00:08:38.290Z,36.40
2022-11-15T00:11:12.137Z,48.50
2022-11-15T00:13:43.339Z,51.30
2022-11-15T00:16:14.255Z,52.00
2022-11-15T00:18:50.415Z,45.80
2022-11-15T00:21:21.804Z,42.90
2022-11-15T00:23:52.920Z,44.20
2022-11-15T00:26:23.822Z,54.70
2022-11-15T00:28:56.612Z,48.40
2022-11-15T00:31:27.570Z,44.50
2022-11-15T00:33:58.331Z,49.40
2022-11-15T00:36:29.103Z,51.10
2022-11-15T00:39:00.103Z,48.20
2022-11-15T00:41:31.218Z,60.10
2022-11-15T00:44:02.232Z,56.10
2022-11-15T00:46:32.979Z,56.50
2022-11-15T00:49:04.246Z,51.10
2022-11-15T00:51:35.225Z,52.60
2022-11-15T00:54:08.835Z,47.70
2022-11-15T00:56:39.983Z,49.70
2022-11-15T00:59:10.981Z,53.10
2022-11-15T01:01:41.746Z,46.30
2022-11-15T01:04:12.894Z,48.70
2022-11-15T01:06:44.188Z,48.20
2022-11-15T01:09:15.681Z,52.40
2022-11-15T01:11:46.969Z,53.90
2022-11-15T01:14:22.797Z,56.50
2022-11-15T01:16:56.252Z,60.20
2022-11-15T01:19:27.347Z,55.00
2022-11-15T01:21:58.195Z,49.70
2022-11-15T01:24:29.138Z,47.20
2022-11-15T01:27:00.329Z,48.50
2022-11-15T01:32:01.046Z,59.80
2022-11-15T01:34:32.180Z,48.10
2022-11-15T01:37:03.231Z,52.70
2022-11-15T01:42:03.779Z,39.90
2022-11-15T01:44:43.946Z,48.20
2022-11-15T01:47:18.492Z,50.70
2022-11-15T01:49:56.456Z,48.30
2022-11-15T01:52:30.144Z,49.60
2022-11-15T01:55:06.996Z,45.80
2022-11-15T01:57:38.203Z,42.50
2022-11-15T02:00:11.932Z,43.60
2022-11-15T02:02:42.833Z,45.50
2022-11-15T02:05:14.032Z,48.40
2022-11-15T02:07:45.264Z,40.70
2022-11-15T02:10:20.109Z,41.80
2022-11-15T02:12:52.645Z,44.30
2022-11-15T02:15:26.460Z,50.60
2022-11-15T02:18:13.591Z,55.90
2022-11-15T02:20:54.143Z,48.80
2022-11-15T02:23:54.819Z,38.10
2022-11-15T02:27:14.500Z,39.90
2022-11-15T02:30:05.873Z,49.00
2022-11-15T02:32:44.034Z,46.70
2022-11-15T02:35:26.235Z,37.60
2022-11-15T02:38:01.854Z,50.40
2022-11-15T02:40:41.271Z,40.10
2022-11-15T02:43:34.046Z,43.00
2022-11-15T02:46:10.899Z,41.50
2022-11-15T02:48:43.747Z,44.80
2022-11-15T02:51:15.786Z,39.50
2022-11-15T02:53:46.788Z,32.60
2022-11-15T02:56:17.749Z,35.00
2022-11-15T02:59:24.902Z,48.30
2022-11-15T03:02:12.369Z,39.60
2022-11-15T03:04:54.175Z,47.50
2022-11-15T03:07:31.921Z,36.40
2022-11-15T03:10:08.783Z,37.60
2022-11-15T03:12:49.086Z,35.90
2022-11-15T03:15:23.626Z,42.20
2022-11-15T03:17:59.914Z,40.30
2022-11-15T03:20:33.583Z,32.40
2022-11-15T03:23:09.071Z,32.00
2022-11-15T03:25:44.106Z,33.70
2022-11-15T03:28:19.806Z,32.40
2022-11-15T03:30:52.278Z,28.70
2022-11-15T03:33:25.084Z,34.00
2022-11-15T03:35:57.166Z,32.60
2022-11-15T03:38:32.931Z,41.60
2022-11-15T03:41:07.282Z,41.80
2022-11-15T03:43:45.101Z,39.50
2022-11-15T03:46:22.121Z,38.20
2022-11-15T03:48:56.427Z,35.00
2022-11-15T03:51:27.590Z,41.80
2022-11-15T03:53:58.575Z,39.20
2022-11-15T03:56:29.626Z,43.50
2022-11-15T03:59:00.672Z,43.20
2022-11-15T04:01:31.653Z,39.00
2022-11-15T04:04:02.739Z,42.30
2022-11-15T04:06:33.894Z,48.90
2022-11-15T04:09:05.340Z,46.60
2022-11-15T04:11:36.350Z,39.50
2022-11-15T04:14:07.319Z,43.80
2022-11-15T04:16:43.596Z,43.20
2022-11-15T04:19:32.364Z,47.60
2022-11-15T04:22:20.723Z,47.80
2022-11-15T04:24:51.752Z,43.50
2022-11-15T04:27:22.856Z,47.00
2022-11-15T04:29:53.816Z,43.00
2022-11-15T04:32:24.878Z,43.20
2022-11-15T04:34:55.806Z,44.50
2022-11-15T04:37:26.604Z,43.20
2022-11-15T04:39:57.594Z,45.60
2022-11-15T04:42:28.505Z,36.90
2022-11-15T04:44:59.490Z,37.20
2022-11-15T04:47:30.575Z,38.10
2022-11-15T04:50:01.836Z,37.10
2022-11-15T04:52:32.820Z,41.90
2022-11-15T04:55:07.932Z,33.40
2022-11-15T04:57:39.847Z,37.50
2022-11-15T05:00:14.201Z,42.60
2022-11-15T05:03:22.647Z,44.50
2022-11-15T05:05:53.660Z,41.30
2022-11-15T05:08:24.475Z,36.10
2022-11-15T05:10:55.503Z,33.10
2022-11-15T05:13:26.359Z,34.70
2022-11-15T05:15:57.219Z,44.60
2022-11-15T05:18:28.702Z,43.30
2022-11-15T05:21:04.838Z,38.90
2022-11-15T05:23:35.853Z,40.00
2022-11-15T05:26:09.475Z,38.50
2022-11-15T05:28:40.986Z,45.20
2022-11-15T05:31:13.030Z,40.30
2022-11-15T05:33:45.419Z,42.00
2022-11-15T05:36:21.156Z,35.70
2022-11-15T05:39:10.572Z,31.10
2022-11-15T05:41:45.824Z,33.20
2022-11-15T05:44:19.929Z,26.60
2022-11-15T05:46:54.631Z,24.20
2022-11-15T05:49:31.493Z,29.10
2022-11-15T05:52:05.532Z,29.90
2022-11-15T05:54:37.994Z,27.50
2022-11-15T05:57:09.436Z,33.50
2022-11-15T05:59:41.942Z,34.60
2022-11-15T06:02:13.554Z,33.50
2022-11-15T06:04:44.356Z,40.70
2022-11-15T06:07:15.169Z,34.30
2022-11-15T06:09:46.020Z,32.10
2022-11-15T06:12:17.086Z,37.20
2022-11-15T06:14:47.951Z,38.50
2022-11-15T06:17:18.700Z,26.70
2022-11-15T06:19:49.610Z,27.90
2022-11-15T06:22:20.621Z,30.10
2022-11-15T06:24:51.431Z,29.20
2022-11-15T06:27:22.274Z,55.60
2022-11-15T06:29:53.399Z,37.60
2022-11-15T06:32:24.955Z,32.00
2022-11-15T06:34:55.803Z,40.60
2022-11-15T06:37:26.845Z,29.90
2022-11-15T06:39:57.898Z,26.90
2022-11-15T06:42:28.770Z,32.10
2022-11-15T06:44:59.732Z,33.60
2022-11-15T06:47:30.618Z,32.70
2022-11-15T06:50:01.697Z,30.40
2022-11-15T06:52:34.225Z,39.50
2022-11-15T06:55:05.642Z,31.00
2022-11-15T06:57:36.587Z,26.20
2022-11-15T07:00:09.009Z,25.70
2022-11-15T07:02:40.283Z,25.40
2022-11-15T07:05:12.331Z,34.20
2022-11-15T07:07:43.365Z,34.60
2022-11-15T07:12:43.895Z,41.40
2022-11-15T07:15:14.876Z,38.30
2022-11-15T07:17:46.022Z,33.90
2022-11-15T07:20:18.389Z,42.50
2022-11-15T07:22:49.766Z,43.90
2022-11-15T07:25:21.027Z,35.90
2022-11-15T07:27:59.378Z,43.10
2022-11-15T07:30:31.233Z,39.30
2022-11-15T07:33:03.553Z,32.40
2022-11-15T07:35:34.497Z,35.10
2022-11-15T07:38:06.422Z,36.30
2022-11-15T07:40:37.420Z,41.10
2022-11-15T07:43:12.130Z,47.20
2022-11-15T07:45:46.256Z,38.10
2022-11-15T07:48:17.269Z,32.30
2022-11-15T07:50:48.716Z,33.30
2022-11-15T07:53:19.757Z,34.10
2022-11-15T07:55:50.490Z,35.30
2022-11-15T07:58:21.678Z,30.30
2022-11-15T08:00:52.610Z,38.40
2022-11-15T08:03:23.538Z,31.70
2022-11-15T08:05:55.375Z,36.90
2022-11-15T08:08:26.616Z,32.00
2022-11-15T08:10:59.194Z,35.50
2022-11-15T08:13:30.249Z,35.70
2022-11-15T08:16:03.897Z,36.40
2022-11-15T08:18:34.908Z,33.30
2022-11-15T08:21:06.493Z,26.90
2022-11-15T08:23:37.908Z,37.20
2022-11-15T08:26:09.078Z,39.50
2022-11-15T08:28:40.071Z,40.10
2022-11-15T08:31:17.662Z,45.20
2022-11-15T08:33:49.069Z,40.80
2022-11-15T08:36:20.423Z,36.10
2022-11-15T08:41:26.991Z,34.90
2022-11-15T08:43:57.842Z,40.00
2022-11-15T08:46:28.834Z,37.90
2022-11-15T08:51:29.753Z,43.80
2022-11-15T08:54:00.860Z,41.00
2022-11-15T08:56:31.865Z,40.00
2022-11-15T08:59:02.888Z,37.10
2022-11-15T09:01:36.735Z,39.60
2022-11-15T09:04:07.937Z,40.20
2022-11-15T09:06:43.082Z,36.80
2022-11-15T09:09:14.553Z,34.10
2022-11-15T09:11:45.435Z,40.50
2022-11-15T09:14:17.624Z,37.40
2022-11-15T09:16:48.534Z,33.70
2022-11-15T09:19:19.830Z,23.60
2022-11-15T09:21:50.944Z,32.20
2022-11-15T09:24:22.186Z,29.00
2022-11-15T09:29:24.493Z,30.40
2022-11-15T09:31:56.977Z,31.20
2022-11-15T09:34:28.089Z,28.80
2022-11-15T09:36:59.019Z,30.80
2022-11-15T09:42:32.644Z,31.60
2022-11-15T09:45:17.119Z,28.30
2022-11-15T09:48:02.199Z,29.10
2022-11-15T09:50:38.954Z,29.60
2022-11-15T09:53:15.784Z,30.80
2022-11-15T09:56:02.520Z,30.10
2022-11-15T09:58:42.170Z,28.80
2022-11-15T10:01:22.105Z,30.70
2022-11-15T10:03:53.424Z,31.10
2022-11-15T10:06:27.706Z,32.70
2022-11-15T10:09:03.752Z,28.60
2022-11-15T10:11:38.965Z,28.10
2022-11-15T10:14:15.890Z,32.70
2022-11-15T10:17:13.608Z,31.20
2022-11-15T10:19:54.866Z,32.90
2022-11-15T10:22:32.075Z,33.10
2022-11-15T10:25:18.356Z,28.00
2022-11-15T10:27:55.806Z,28.70
2022-11-15T10:30:32.674Z,31.10
2022-11-15T10:33:18.512Z,32.70
2022-11-15T10:35:49.400Z,30.60
2022-11-15T10:38:20.183Z,33.60
2022-11-15T10:41:08.238Z,33.90
2022-11-15T10:43:39.499Z,35.00
2022-11-15T10:46:45.510Z,26.70
2022-11-15T10:49:19.146Z,29.80
2022-11-15T10:51:53.484Z,30.30
2022-11-15T10:54:29.687Z,32.40
2022-11-15T10:57:07.065Z,35.20
2022-11-15T11:02:30.319Z,36.90
2022-11-15T11:05:02.268Z,39.50
2022-11-15T11:07:35.880Z,42.70
2022-11-15T11:10:49.941Z,38.20
2022-11-15T11:13:24.042Z,34.60
2022-11-15T11:18:37.002Z,37.90
2022-11-15T11:21:13.681Z,41.40
2022-11-15T11:23:54.075Z,33.90
2022-11-15T11:26:42.901Z,38.40
2022-11-15T11:29:28.402Z,35.90
2022-11-15T11:32:05.335Z,32.50
2022-11-15T11:34:49.673Z,32.70
2022-11-15T11:37:33.108Z,38.90
2022-11-15T11:40:16.483Z,37.30
2022-11-15T11:43:00.244Z,32.90
2022-11-15T11:45:50.893Z,34.30
2022-11-15T11:48:41.291Z,33.60
2022-11-15T11:51:18.766Z,32.40
2022-11-15T11:53:57.087Z,27.50
2022-11-15T11:56:31.214Z,36.40
2022-11-15T11:59:21.388Z,63.50
2022-11-15T12:01:52.486Z,32.60
2022-11-15T12:04:31.509Z,34.70
2022-11-15T12:07:07.816Z,30.80
2022-11-15T12:09:43.671Z,38.80
2022-11-15T12:12:25.342Z,32.50
2022-11-15T12:14:59.711Z,38.90
2022-11-15T12:17:37.317Z,37.00
2022-11-15T12:20:20.716Z,34.50
2022-11-15T12:22:58.109Z,31.70
2022-11-15T12:25:35.603Z,34.10
2022-11-15T12:28:17.744Z,36.60
2022-11-15T12:30:53.151Z,34.40
2022-11-15T12:33:44.741Z,35.40
2022-11-15T12:36:36.785Z,38.60
2022-11-15T12:39:09.948Z,38.50
2022-11-15T12:41:42.357Z,36.00
2022-11-15T12:44:34.951Z,37.60
2022-11-15T12:47:24.577Z,31.60
2022-11-15T12:49:55.877Z,29.90
2022-11-15T12:52:27.263Z,36.80
2022-11-15T12:55:06.279Z,30.10
2022-11-15T12:57:42.729Z,31.50
2022-11-15T13:00:41.129Z,36.40
2022-11-15T13:03:30.141Z,38.30
2022-11-15T13:06:27.769Z,40.00
2022-11-15T13:08:58.682Z,33.50
2022-11-15T13:14:46.670Z,39.90
2022-11-15T13:17:38.850Z,42.50
2022-11-15T13:20:24.532Z,40.50
2022-11-15T13:23:03.327Z,45.00
2022-11-15T13:26:05.771Z,48.00
2022-11-15T13:28:39.095Z,47.70
2022-11-15T13:31:24.932Z,52.00
2022-11-15T13:33:58.326Z,51.60
2022-11-15T13:36:34.179Z,48.80
2022-11-15T13:39:08.137Z,48.10
2022-11-15T13:41:47.456Z,45.00
2022-11-15T13:44:26.059Z,46.10
2022-11-15T13:47:08.503Z,48.00
2022-11-15T13:49:39.381Z,52.80
2022-11-15T13:54:45.633Z,52.90
2022-11-15T13:57:21.420Z,41.30
2022-11-15T13:59:55.072Z,47.60
2022-11-15T14:02:32.267Z,53.60
2022-11-15T14:05:13.925Z,50.80
2022-11-15T14:07:57.414Z,47.10
2022-11-15T14:10:34.302Z,41.70
2022-11-15T14:13:06.199Z,35.30
2022-11-15T14:15:38.971Z,31.60
2022-11-15T14:18:34.887Z,43.30
2022-11-15T14:21:10.754Z,38.40
2022-11-15T14:23:44.271Z,47.90
2022-11-15T14:26:32.386Z,42.90
2022-11-15T14:29:26.569Z,39.30
2022-11-15T14:32:08.446Z,44.20
2022-11-15T14:34:39.434Z,39.90
2022-11-15T14:37:18.802Z,37.60
2022-11-15T14:39:58.705Z,47.00
2022-11-15T14:42:32.013Z,45.90
2022-11-15T14:45:04.215Z,43.40
2022-11-15T14:47:35.342Z,46.10
2022-11-15T14:50:07.639Z,40.70
2022-11-15T14:52:38.495Z,46.50
2022-11-15T14:55:19.231Z,46.90
2022-11-15T14:57:50.359Z,46.10
2022-11-15T15:00:22.640Z,46.60
2022-11-15T15:02:56.112Z,40.60
2022-11-15T15:05:34.045Z,47.00
2022-11-15T15:08:06.406Z,44.00
2022-11-15T15:10:40.935Z,45.40
2022-11-15T15:13:19.960Z,47.30
2022-11-15T15:15:52.600Z,61.90
2022-11-15T15:18:23.812Z,53.50
2022-11-15T15:21:01.096Z,44.40
2022-11-15T15:23:32.442Z,50.50
2022-11-15T15:28:34.896Z,68.30
2022-11-15T15:31:08.496Z,71.50
2022-11-15T15:33:39.872Z,50.10
2022-11-15T15:36:13.111Z,41.90
2022-11-15T15:38:44.136Z,46.00
2022-11-15T15:41:16.418Z,43.60
2022-11-15T15:43:48.491Z,43.40
2022-11-15T15:46:20.753Z,37.70
2022-11-15T15:48:51.841Z,55.70
2022-11-15T15:51:22.837Z,82.70
2022-11-15T15:56:25.050Z,56.10
2022-11-15T15:58:56.555Z,59.30
2022-11-15T16:01:27.852Z,79.50
2022-11-15T16:03:58.855Z,76.80
2022-11-15T16:06:45.173Z,50.50
2022-11-15T16:09:18.720Z,50.20
2022-11-15T16:11:50.535Z,60.80
2022-11-15T16:14:21.665Z,64.30
2022-11-15T16:19:22.012Z,55.70
2022-11-15T16:21:53.988Z,59.20
2022-11-15T16:24:24.952Z,55.90
2022-11-15T16:26:55.938Z,49.10
2022-11-15T16:29:27.602Z,60.10
2022-11-15T16:31:58.902Z,50.20
2022-11-15T16:34:32.972Z,49.50
2022-11-15T16:37:05.869Z,50.90
2022-11-15T16:42:06.545Z,48.90
2022-11-15T16:44:37.549Z,52.50
2022-11-15T16:47:14.033Z,48.40
2022-11-15T16:49:46.420Z,48.40
2022-11-15T16:52:21.329Z,45.40
2022-11-15T16:54:53.061Z,54.10
2022-11-15T16:57:23.898Z,49.10
2022-11-15T16:59:55.141Z,47.30
2022-11-15T17:02:26.049Z,48.10
2022-11-15T17:07:26.546Z,50.70
2022-11-15T17:09:57.519Z,49.00
2022-11-15T17:12:28.719Z,50.30
2022-11-15T17:14:59.833Z,53.80
2022-11-15T17:17:31.182Z,53.10
2022-11-15T17:20:05.176Z,55.80
2022-11-15T17:22:36.350Z,52.40
2022-11-15T17:30:08.423Z,48.50
2022-11-15T17:32:40.092Z,52.90
2022-11-15T17:35:15.525Z,53.70
2022-11-15T17:37:48.344Z,44.10
2022-11-15T17:40:19.713Z,63.20
2022-11-15T17:42:50.731Z,66.80
2022-11-15T17:45:21.836Z,64.00
2022-11-15T17:47:53.786Z,57.10
2022-11-15T17:50:25.028Z,59.20
2022-11-15T17:55:26.013Z,52.60
2022-11-15T18:00:26.318Z,51.10
2022-11-15T18:02:59.407Z,53.70
2022-11-15T18:05:30.400Z,50.10
2022-11-15T18:08:01.443Z,55.90
2022-11-15T18:10:32.734Z,47.80
2022-11-15T18:13:03.613Z,54.20
2022-11-15T18:15:34.582Z,49.00
2022-11-15T18:20:35.377Z,50.50
2022-11-15T18:23:06.707Z,50.90
2022-11-15T18:25:37.715Z,48.80
2022-11-15T18:28:08.756Z,51.60
2022-11-15T18:33:10.606Z,49.30
2022-11-15T18:35:41.738Z,47.10
2022-11-15T18:38:12.660Z,43.40
2022-11-15T18:40:43.814Z,51.30
2022-11-15T18:43:14.733Z,50.80
2022-11-15T18:45:45.690Z,46.10
2022-11-15T18:48:16.903Z,43.10
2022-11-15T18:53:18.670Z,47.50
2022-11-15T18:55:49.784Z,53.20
2022-11-15T18:58:23.027Z,50.40
2022-11-15T19:03:23.581Z,41.60
2022-11-15T19:06:01.514Z,47.40
2022-11-15T19:08:35.376Z,43.10
2022-11-15T19:11:10.355Z,55.40
2022-11-15T19:13:41.706Z,52.50
2022-11-15T19:16:14.978Z,55.40
2022-11-15T19:18:46.012Z,53.90
2022-11-15T19:21:17.823Z,109.80
2022-11-15T19:23:48.833Z,235.80
2022-11-15T19:26:20.023Z,225.20
2022-11-15T19:28:54.142Z,70.40
2022-11-15T19:31:27.037Z,56.20
2022-11-15T19:33:59.676Z,57.40
2022-11-15T19:36:33.588Z,50.30
2022-11-15T19:39:09.215Z,43.00
2022-11-15T19:41:42.865Z,47.40
2022-11-15T19:44:14.974Z,52.40
2022-11-15T19:46:46.576Z,54.80
2022-11-15T19:49:17.684Z,52.30
2022-11-15T19:51:49.289Z,46.80
2022-11-15T19:54:20.183Z,46.70
2022-11-15T19:59:21.780Z,46.70
2022-11-15T20:01:52.676Z,48.70
2022-11-15T20:04:23.536Z,50.40
2022-11-15T20:09:25.965Z,44.90
2022-11-15T20:11:58.763Z,43.20
2022-11-15T20:14:30.430Z,56.90
2022-11-15T20:17:01.263Z,53.90
2022-11-15T20:19:32.212Z,37.80
2022-11-15T20:22:03.196Z,44.70
2022-11-15T20:27:03.765Z,46.60
2022-11-15T20:32:04.124Z,45.70
2022-11-15T20:34:35.314Z,58.30
2022-11-15T20:37:06.492Z,48.50
2022-11-15T20:39:37.798Z,48.10
2022-11-15T20:42:09.467Z,44.60
2022-11-15T20:44:40.334Z,47.50
2022-11-15T20:49:40.533Z,43.50
2022-11-15T20:52:11.479Z,43.20
2022-11-15T20:54:42.482Z,39.30
2022-11-15T20:57:13.205Z,50.00
2022-11-15T20:59:44.584Z,49.80
2022-11-15T21:02:16.557Z,57.70
2022-11-15T21:04:48.203Z,54.50
2022-11-15T21:10:12.023Z,54.40
2022-11-15T21:12:42.900Z,50.10
2022-11-15T21:15:14.151Z,53.80
2022-11-15T21:17:45.235Z,48.30
2022-11-15T21:20:16.831Z,57.10
2022-11-15T21:22:48.677Z,55.40
2022-11-15T21:25:19.895Z,59.70
2022-11-15T21:27:51.627Z,49.40
2022-11-15T21:30:22.829Z,50.30
2022-11-15T21:32:53.766Z,44.70
2022-11-15T21:35:24.837Z,56.80
2022-11-15T21:40:28.457Z,48.30
2022-11-15T21:42:59.248Z,55.90
2022-11-15T21:45:30.110Z,57.70
2022-11-15T21:48:00.807Z,58.00
2022-11-15T21:53:01.577Z,48.20
2022-11-15T21:55:32.544Z,46.00
2022-11-15T21:58:03.497Z,51.90
2022-11-15T22:00:52.321Z,47.00
2022-11-15T22:03:23.287Z,49.90
2022-11-15T22:05:54.258Z,44.10
2022-11-15T22:08:25.413Z,47.90
2022-11-15T22:10:56.961Z,46.80
2022-11-15T22:13:28.701Z,49.90
2022-11-15T22:15:59.800Z,49.10
2022-11-15T22:18:30.994Z,47.80
2022-11-15T22:21:05.356Z,55.00
2022-11-15T22:23:37.319Z,57.60
2022-11-15T22:26:09.277Z,49.90
2022-11-15T22:28:40.800Z,63.00
2022-11-15T22:31:12.409Z,47.10
2022-11-15T22:33:43.838Z,47.90
2022-11-15T22:36:15.378Z,53.90
2022-11-15T22:38:46.725Z,45.70
2022-11-15T22:43:48.295Z,50.00
2022-11-15T22:46:19.200Z,44.80
2022-11-15T22:48:50.273Z,48.40
2022-11-15T22:51:21.609Z,46.10
2022-11-15T22:53:52.750Z,43.20
2022-11-15T22:58:52.943Z,43.30
2022-11-15T23:01:24.349Z,44.50
2022-11-15T23:03:55.484Z,42.40
2022-11-15T23:08:55.905Z,41.30
2022-11-15T23:11:46.623Z,44.20
2022-11-15T23:14:17.395Z,48.20
2022-11-15T23:16:49.013Z,42.00
2022-11-15T23:19:20.043Z,43.60
2022-11-15T23:24:38.099Z,43.80
2022-11-15T23:27:10.742Z,42.20
2022-11-15T23:29:56.113Z,44.20
2022-11-15T23:32:44.644Z,43.50
2022-11-15T23:35:15.795Z,46.20
2022-11-15T23:40:16.669Z,44.90
2022-11-15T23:42:47.654Z,40.40
2022-11-15T23:47:48.623Z,37.10
2022-11-15T23:50:20.027Z,42.80
2022-11-15T23:52:51.091Z,41.30
2022-11-15T23:55:22.101Z,38.00
